CW7218 Weather Reports


time (UTC)temp
C
wind
direction
speed
KPH
gust
KPH
rain 1hr
cm
rain 24hr
cm
rain mn
cm
humidity
%
barometer
mb
20190424184016 11 202 12.9 24.1 0.00 0.03 0.03 61 1007.4
20190424183016 11 202 16.1 27.4 0.00 0.03 0.03 60 1007.1
20190424182016 11 180 16.1 30.6 0.00 0.03 0.03 60 1006.8
20190424181018 11 202 16.1 27.4 0.00 0.03 0.03 59 1006.8
20190424180016 11 180 12.9 19.3 0.00 0.03 0.03 61 1006.7
20190424175016 11 180 11.3 20.9 0.00 0.03 0.03 63 1006.5
20190424174016 12 202 12.9 20.9 0.00 0.03 0.03 62 1006.3
20190424173016 12 225 12.9 24.1 0.00 0.03 0.03 60 1006.3
20190424172016 12 225 12.9 22.5 0.00 0.03 0.03 60 1006.3
20190424171016 12 225 16.1 25.7 0.00 0.03 0.03 60 1006.4
20190424170016 12 202 16.1 29.0 0.00 0.03 0.03 58 1006.1
20190424165016 12 202 16.1 25.7 0.00 0.05 0.03 58 1006.1
20190424164016 12 202 16.1 27.4 0.00 0.05 0.03 57 1006.2
20190424163016 12 225 19.3 30.6 0.00 0.05 0.03 57 1006.3
20190424162019 12 247 12.9 22.5 0.00 0.05 0.03 56 1006.1
20190424161016 12 270 16.1 30.6 0.00 0.05 0.03 55 1006.0
20190424160016 12 270 14.5 32.2 0.00 0.05 0.03 55 1006.0
20190424155016 12 270 9.7 20.9 0.00 0.05 0.03 55 1005.9
20190424154016 12 270 14.5 29.0 0.00 0.05 0.03 56 1005.8
20190424153016 12 270 11.3 24.1 0.00 0.05 0.03 55 1005.8
20190424152016 11 225 14.5 24.1 0.00 0.05 0.03 55 1005.8
20190424151016 12 225 12.9 22.5 0.00 0.05 0.03 55 1006.1
20190424150016 12 225 14.5 29.0 0.00 0.05 0.03 55 1006.1
20190424145016 12 225 17.7 35.4 0.00 0.08 0.03 52 1006.2
20190424144016 12 225 17.7 35.4 0.00 0.13 0.03 52 1006.5
20190424143015 12 202 20.9 38.6 0.00 0.28 0.03 52 1006.5
20190424142015 12 202 19.3 35.4 0.00 0.41 0.03 51 1006.4
20190424141016 12 225 19.3 43.5 0.00 0.41 0.03 49 1006.6
20190424140016 12 225 19.3 35.4 0.00 0.41 0.03 48 1006.4
20190424135015 12 225 22.5 45.1 0.00 0.41 0.03 49 1006.4
20190424134015 12 225 22.5 37.0 0.00 0.41 0.03 47 1006.3
20190424133029 12 225 24.1 48.3 0.00 0.41 0.03 47 1006.3
20190424132016 12 225 20.9 38.6 0.00 0.41 0.03 46 1006.3
20190424131016 12 247 25.7 49.9 0.00 0.41 0.03 43 1006.2
20190424130015 12 225 24.1 49.9 0.00 0.41 0.03 46 1006.3
20190424125016 12 247 22.5 43.5 0.00 0.41 0.03 49 1006.3
20190424124015 12 225 20.9 43.5 0.00 0.41 0.03 51 1006.1
20190424123015 11 225 22.5 35.4 0.00 0.46 0.03 53 1006.1
20190424122015 11 225 24.1 56.3 0.00 0.46 0.03 52 1006.0
20190424121015 11 225 20.9 35.4 0.00 0.46 0.03 50 1006.0
20190424120015 11 247 22.5 38.6 0.00 0.46 0.03 51 1006.0
20190424115015 11 225 22.5 38.6 0.00 0.46 0.03 52 1006.1
20190424114017 11 247 19.3 48.3 0.00 0.46 0.03 54 1006.0
20190424113017 11 247 22.5 48.3 0.00 0.46 0.03 52 1005.8
20190424112017 11 225 19.3 35.4 0.00 0.46 0.03 55 1005.7
20190424111017 10 202 22.5 37.0 0.00 0.46 0.03 57 1005.6
20190424110017 10 202 19.3 33.8 0.00 0.46 0.03 57 1005.5
20190424105017 10 202 24.1 35.4 0.00 0.46 0.03 59 1005.7
20190424104017 10 202 20.9 33.8 0.00 0.46 0.03 58 1005.6
20190424103017 10 225 24.1 41.8 0.00 0.46 0.03 59 1005.3
20190424102017 10 202 20.9 38.6 0.00 0.46 0.03 56 1005.6
20190424101017 10 225 20.9 40.2 0.00 0.46 0.03 57 1005.4
20190424100017 10 225 24.1 45.1 0.00 0.46 0.03 59 1005.4
20190424095017 11 225 20.9 35.4 0.00 0.46 0.03 54 1005.2
20190424094017 10 202 22.5 38.6 0.00 0.46 0.03 57 1005.2
20190424093017 10 202 20.9 32.2 0.00 0.46 0.03 65 1005.1
20190424092017 10 202 19.3 33.8 0.00 0.46 0.03 65 1004.9
20190424091019 10 225 22.5 35.4 0.00 0.46 0.03 65 1004.4
20190424090017 10 225 14.5 29.0 0.00 0.46 0.03 61 1004.4
20190424085017 10 225 12.9 22.5 0.00 0.46 0.03 62 1004.2
20190424084017 10 202 12.9 24.1 0.00 0.46 0.03 62 1003.7
20190424083017 10 225 12.9 25.7 0.00 0.46 0.03 60 1003.8
20190424082017 10 135 6.4 20.9 0.00 0.46 0.03 72 1003.7
20190424081017 10 157 4.8 8.0 0.00 0.46 0.03 73 1003.7
20190424080016 9 112 4.8 9.7 0.00 0.46 0.03 76 1003.4
20190424075016 8 90 4.8 14.5 0.00 0.46 0.03 78 1003.3
20190424074016 8 112 6.4 12.9 0.00 0.46 0.03 79 1003.2
20190424073017 8 112 4.8 11.3 0.00 0.46 0.03 80 1003.2
20190424072017 8 112 6.4 16.1 0.00 0.46 0.03 80 1002.9
20190424071016 7 112 6.4 16.1 0.00 0.46 0.03 81 1002.7
20190424070016 7 90 6.4 12.9 0.00 0.46 0.03 84 1002.6
20190424065016 7 90 8.0 14.5 0.00 0.46 0.03 84 1002.3
20190424064016 7 112 4.8 12.9 0.00 0.46 0.03 83 1002.2
20190424063017 7 90 3.2 11.3 0.00 0.46 0.03 83 1002.1
20190424062016 7 90 4.8 9.7 0.00 0.46 0.03 85 1001.9
20190424061110 7 112 4.8 9.7 0.00 0.46 0.03 85 1001.8
20190424060016 7 112 3.2 6.4 0.00 0.46 0.03 84 1001.5
20190424055016 7 112 3.2 6.4 0.00 0.46 0.03 85 1001.6
20190424054016 7 112 3.2 6.4 0.00 0.46 0.03 85 1001.4
20190424053016 7 90 1.6 3.2 0.00 0.46 0.03 85 1001.2
20190424052016 6 90 4.8 9.7 0.00 0.46 0.03 85 1000.9
20190424051016 6 90 4.8 9.7 0.00 0.46 0.03 85 1000.7
20190424050016 6 90 6.4 14.5 0.00 0.46 0.03 85 1000.4
20190424045016 6 90 6.4 12.9 0.00 0.46 0.03 86 1000.3
20190424044018 6 112 6.4 14.5 0.00 0.46 0.03 86 1000.1
20190424043016 6 90 8.0 14.5 0.00 0.46 0.03 86 1000.0
20190424042016 7 112 4.8 11.3 0.00 0.46 0.03 84 999.9
20190424041016 6 90 8.0 12.9 0.00 0.46 0.03 85 999.9
20190424040016 7 90 6.4 12.9 0.00 0.46 0.03 85 999.9
20190424035016 7 90 6.4 12.9 0.00 0.46 0.03 85 1000.0
20190424034016 7 112 9.7 17.7 0.00 0.46 0.03 85 999.9
20190424033016 7 90 9.7 20.9 0.00 0.46 0.03 84 999.7
20190424032016 7 90 11.3 17.7 0.00 0.46 0.03 84 999.4
20190424031016 7 90 11.3 24.1 0.00 0.46 0.03 84 999.3
20190424030016 7 90 8.0 14.5 0.03 0.46 0.03 83 999.2
20190424025016 8 112 4.8 12.9 0.03 0.46 0.03 79 999.0
20190424024016 9 202 6.4 20.9 0.03 0.46 0.03 73 999.3
20190424023015 10 202 11.3 27.4 0.03 0.46 0.03 65 999.4
20190424022016 10 292 17.7 35.4 0.03 0.46 0.03 68 999.1
20190424021015 9 247 17.7 38.6 0.00 0.43 0.00 72 999.3
20190424020016 9 247 12.9 24.1 0.00 0.41 0.00 75 999.4
20190424015034 8 202 14.5 22.5 0.00 0.41 0.00 86 999.3
20190424014018 9 180 11.3 20.9 0.00 0.41 0.00 91 999.2
20190424013015 9 180 8.0 12.9 0.00 0.41 0.00 91 999.4
20190424012015 9 157 6.4 11.3 0.00 0.41 0.00 90 999.6
20190424011015 10 180 6.4 11.3 0.00 0.41 0.00 90 999.3
20190424010030 10 202 9.7 14.5 0.00 0.41 0.00 89 999.3
20190424005016 10 180 8.0 17.7 0.00 0.41 0.00 89 999.6
20190424004015 10 157 3.2 6.4 0.00 0.41 0.00 88 999.6
20190424003015 10 157 3.2 6.4 0.00 0.41 0.00 87 999.7
20190424002016 10 202 6.4 11.3 0.00 0.41 0.00 86 999.7
20190424001015 10 247 6.4 9.7 0.00 0.41 0.00 86 999.9
20190424000015 10 225 4.8 8.0 0.00 0.41 0.41 88 1000.0
20190423235015 10 180 4.8 8.0 0.00 0.41 0.41 89 1000.1
20190423234015 10 180 3.2 6.4 0.00 0.41 0.41 89 1000.0
20190423233015 10 180 3.2 6.4 0.00 0.41 0.41 89 999.9
20190423232015 10 180 6.4 11.3 0.00 0.41 0.41 88 999.8
20190423231015 10 202 3.2 6.4 0.00 0.41 0.41 88 999.8
20190423230015 10 0.0 3.2 0.00 0.41 0.41 87 999.5
20190423225015 10 202 3.2 4.8 0.00 0.41 0.41 87 999.5
20190423224015 10 202 3.2 6.4 0.00 0.41 0.41 86 999.6
20190423223017 10 202 4.8 8.0 0.00 0.41 0.41 85 999.5
20190423222017 11 202 3.2 8.0 0.00 0.41 0.41 83 999.3
20190423221017 11 202 1.6 4.8 0.00 0.41 0.41 83 999.3
20190423220017 11 202 3.2 6.4 0.00 0.41 0.41 82 999.2
20190423215017 11 202 6.4 11.3 0.00 0.41 0.41 82 999.4
20190423214017 11 180 8.0 11.3 0.00 0.41 0.41 82 999.5
20190423213017 11 180 8.0 12.9 0.00 0.41 0.41 81 999.5
20190423212017 11 202 8.0 11.3 0.00 0.41 0.41 81 999.5
20190423211017 11 202 9.7 14.5 0.00 0.41 0.41 81 999.4
20190423210017 11 202 6.4 11.3 0.00 0.41 0.41 82 999.4
20190423205017 11 202 8.0 12.9 0.00 0.41 0.41 81 999.1
20190423204017 11 202 9.7 14.5 0.00 0.41 0.41 82 999.1
20190423203017 11 202 8.0 12.9 0.00 0.41 0.41 81 998.9
20190423202017 11 180 6.4 8.0 0.00 0.41 0.41 81 998.7
20190423201017 11 202 6.4 9.7 0.00 0.41 0.41 81 998.4
20190423200021 12 202 4.8 8.0 0.00 0.41 0.41 80 998.4
20190423195017 12 202 3.2 8.0 0.00 0.41 0.41 79 998.4
20190423194017 12 202 4.8 11.3 0.00 0.41 0.41 77 998.3
20190423193017 12 202 9.7 14.5 0.00 0.41 0.41 75 998.3
20190423192017 12 247 9.7 17.7 0.00 0.41 0.41 74 998.2
20190423191017 12 247 9.7 14.5 0.00 0.41 0.41 74 997.8
20190423190017 12 225 11.3 22.5 0.00 0.41 0.41 73 997.5
20190423185016 12 225 16.1 29.0 0.00 0.41 0.41 72 997.4